createdAt,value
2022-08-10T00:01:59.210Z,18.40
2022-08-10T00:07:53.580Z,18.40
2022-08-10T00:13:48.355Z,18.70
2022-08-10T00:20:02.574Z,18.20
2022-08-10T00:25:55.266Z,18.00
2022-08-10T00:31:58.154Z,18.00
2022-08-10T00:37:57.906Z,17.90
2022-08-10T00:43:51.926Z,17.90
2022-08-10T00:49:47.665Z,17.60
2022-08-10T00:57:14.399Z,18.00
2022-08-10T01:02:08.380Z,17.60
2022-08-10T01:08:19.700Z,17.60
2022-08-10T01:14:22.880Z,17.70
2022-08-10T01:20:30.262Z,17.50
2022-08-10T01:26:40.764Z,17.50
2022-08-10T01:32:43.522Z,17.60
2022-08-10T01:38:41.645Z,17.40
2022-08-10T01:44:38.785Z,17.50
2022-08-10T01:50:59.488Z,17.60
2022-08-10T01:57:00.083Z,17.50
2022-08-10T02:02:55.123Z,18.00
2022-08-10T02:09:05.671Z,17.40
2022-08-10T02:15:02.446Z,17.20
2022-08-10T02:20:56.961Z,16.90
2022-08-10T02:26:56.451Z,16.90
2022-08-10T02:32:54.586Z,17.00
2022-08-10T02:38:58.437Z,16.90
2022-08-10T02:45:27.144Z,16.80
2022-08-10T02:51:19.670Z,17.10
2022-08-10T02:58:13.835Z,16.90
2022-08-10T03:03:59.528Z,17.00
2022-08-10T03:09:55.285Z,17.60
2022-08-10T03:15:50.759Z,17.50
2022-08-10T03:21:48.995Z,17.40
2022-08-10T03:27:43.672Z,16.70
2022-08-10T03:33:41.580Z,16.70
2022-08-10T03:39:37.740Z,16.70
2022-08-10T03:45:55.430Z,16.70
2022-08-10T03:51:49.947Z,16.40
2022-08-10T03:57:49.457Z,16.60
2022-08-10T04:03:44.017Z,16.70
2022-08-10T04:09:54.142Z,16.30
2022-08-10T04:15:50.423Z,16.90
2022-08-10T04:21:51.830Z,16.10
2022-08-10T04:27:47.731Z,15.90
2022-08-10T04:33:46.317Z,16.00
2022-08-10T04:39:40.540Z,16.10
2022-08-10T04:45:48.263Z,16.40
2022-08-10T04:51:47.130Z,17.10
2022-08-10T04:57:41.308Z,17.10
2022-08-10T05:03:34.715Z,17.10
2022-08-10T05:10:03.438Z,17.00
2022-08-10T05:15:58.405Z,17.20
2022-08-10T05:22:02.997Z,17.40
2022-08-10T05:28:18.058Z,17.40
2022-08-10T05:34:20.902Z,17.50
2022-08-10T05:40:14.634Z,17.40
2022-08-10T05:46:19.209Z,17.80
2022-08-10T05:52:14.710Z,18.00
2022-08-10T05:58:11.276Z,18.10
2022-08-10T06:04:08.317Z,18.10
2022-08-10T06:10:02.394Z,18.30
2022-08-10T06:15:58.857Z,18.30
2022-08-10T06:22:00.858Z,18.50
2022-08-10T06:28:05.655Z,18.50
2022-08-10T06:34:02.802Z,18.60
2022-08-10T06:39:57.919Z,18.70
2022-08-10T06:46:08.296Z,18.80
2022-08-10T06:52:04.237Z,19.00
2022-08-10T06:58:02.492Z,19.00
2022-08-10T07:04:02.171Z,19.10
2022-08-10T07:09:59.758Z,19.30
2022-08-10T07:16:00.177Z,19.30
2022-08-10T07:21:57.968Z,19.50
2022-08-10T07:28:00.150Z,19.50
2022-08-10T07:34:00.088Z,19.60
2022-08-10T07:39:58.244Z,19.70
2022-08-10T07:45:59.222Z,19.80
2022-08-10T07:51:57.847Z,19.90
2022-08-10T07:57:55.079Z,20.00
2022-08-10T08:04:10.527Z,20.10
2022-08-10T08:10:05.930Z,20.20
2022-08-10T08:16:17.455Z,20.30
2022-08-10T08:24:30.561Z,20.40
2022-08-10T08:28:35.474Z,20.50
2022-08-10T08:34:32.632Z,20.60
2022-08-10T08:46:59.069Z,20.70
2022-08-10T08:53:09.667Z,20.70
2022-08-10T08:59:26.765Z,20.90
2022-08-10T09:05:59.717Z,21.00
2022-08-10T09:12:04.845Z,21.20
2022-08-10T09:18:10.210Z,21.30
2022-08-10T09:24:19.895Z,21.30
2022-08-10T09:30:19.762Z,21.30
2022-08-10T09:36:42.332Z,21.30
2022-08-10T09:43:14.478Z,21.50
2022-08-10T09:49:53.322Z,21.50
2022-08-10T09:56:18.218Z,21.70
2022-08-10T10:02:28.055Z,22.20
2022-08-10T10:08:40.753Z,22.30
2022-08-10T10:14:58.678Z,22.40
2022-08-10T10:21:02.291Z,22.90
2022-08-10T10:27:06.051Z,23.40
2022-08-10T10:33:16.261Z,23.50
2022-08-10T10:39:20.719Z,23.40
2022-08-10T10:45:20.582Z,23.80
2022-08-10T10:51:19.781Z,23.90
2022-08-10T10:57:20.764Z,24.50
2022-08-10T11:03:28.203Z,24.60
2022-08-10T11:10:03.482Z,24.90
2022-08-10T11:16:00.563Z,25.70
2022-08-10T11:22:06.990Z,26.00
2022-08-10T11:28:10.377Z,26.00
2022-08-10T11:34:46.889Z,26.60
2022-08-10T11:40:32.030Z,25.90
2022-08-10T11:46:31.991Z,26.50
2022-08-10T11:52:35.860Z,26.80
2022-08-10T11:58:51.936Z,27.80
2022-08-10T12:04:52.143Z,27.60
2022-08-10T12:10:55.916Z,28.10
2022-08-10T12:16:52.711Z,28.00
2022-08-10T12:22:51.311Z,28.40
2022-08-10T12:28:52.805Z,28.80
2022-08-10T12:34:52.365Z,29.50
2022-08-10T12:40:50.858Z,29.70
2022-08-10T12:46:54.911Z,30.20
2022-08-10T12:53:04.974Z,31.10
2022-08-10T12:59:01.975Z,30.80
2022-08-10T13:05:01.502Z,30.60
2022-08-10T13:11:00.705Z,31.60
2022-08-10T13:16:58.866Z,31.30
2022-08-10T13:22:57.306Z,30.20
2022-08-10T13:29:01.812Z,30.50
2022-08-10T13:34:59.225Z,30.80
2022-08-10T13:40:55.324Z,31.30
2022-08-10T13:47:00.490Z,32.30
2022-08-10T13:53:01.537Z,32.50
2022-08-10T13:58:57.392Z,32.00
2022-08-10T14:04:51.652Z,32.00
2022-08-10T14:11:09.384Z,33.70
2022-08-10T14:17:05.471Z,34.60
2022-08-10T14:23:06.570Z,33.60
2022-08-10T14:29:06.688Z,33.00
2022-08-10T14:36:20.924Z,33.70
2022-08-10T14:42:01.866Z,33.00
2022-08-10T14:47:53.393Z,33.10
2022-08-10T14:53:57.361Z,34.40
2022-08-10T15:00:22.695Z,33.30
2022-08-10T15:06:17.115Z,32.60
2022-08-10T15:12:19.535Z,32.50
2022-08-10T15:18:26.345Z,32.40
2022-08-10T15:24:35.816Z,31.10
2022-08-10T15:30:32.523Z,30.60
2022-08-10T15:36:45.438Z,30.80
2022-08-10T15:42:39.911Z,31.00
2022-08-10T15:48:54.151Z,30.70
2022-08-10T15:55:02.254Z,30.40
2022-08-10T16:02:13.066Z,30.00
2022-08-10T16:07:46.170Z,29.90
2022-08-10T16:13:50.317Z,29.20
2022-08-10T16:19:56.304Z,28.90
2022-08-10T16:25:58.273Z,28.90
2022-08-10T16:31:57.171Z,28.90
2022-08-10T16:37:56.672Z,28.50
2022-08-10T16:43:56.307Z,28.30
2022-08-10T16:49:51.484Z,28.10
2022-08-10T16:55:50.633Z,27.90
2022-08-10T17:01:54.075Z,27.80
2022-08-10T17:07:49.851Z,27.70
2022-08-10T17:13:43.802Z,27.70
2022-08-10T17:19:43.932Z,27.60
2022-08-10T17:25:53.613Z,27.50
2022-08-10T17:31:54.519Z,27.50
2022-08-10T17:37:56.118Z,27.40
2022-08-10T17:44:02.460Z,27.30
2022-08-10T17:50:00.467Z,27.20
2022-08-10T17:55:59.840Z,27.00
2022-08-10T18:02:01.406Z,27.00
2022-08-10T18:07:59.967Z,26.90
2022-08-10T18:14:00.506Z,26.80
2022-08-10T18:19:58.123Z,26.70
2022-08-10T18:26:01.751Z,26.50
2022-08-10T18:32:11.954Z,26.50
2022-08-10T18:38:08.066Z,26.40
2022-08-10T18:44:12.228Z,26.20
2022-08-10T18:50:15.656Z,26.10
2022-08-10T18:56:17.501Z,26.00
2022-08-10T19:02:30.246Z,25.80
2022-08-10T19:09:01.692Z,25.70
2022-08-10T19:15:05.457Z,25.50
2022-08-10T19:21:09.712Z,25.40
2022-08-10T19:27:16.678Z,25.40
2022-08-10T19:33:27.388Z,25.30
2022-08-10T19:39:30.635Z,25.20
2022-08-10T19:46:00.616Z,25.00
2022-08-10T19:51:53.775Z,24.90
2022-08-10T19:58:01.844Z,24.70
2022-08-10T20:04:00.813Z,24.70
2022-08-10T20:10:07.069Z,24.60
2022-08-10T20:16:06.419Z,24.50
2022-08-10T20:22:05.985Z,24.40
2022-08-10T20:28:09.968Z,24.10
2022-08-10T20:34:08.387Z,23.90
2022-08-10T20:40:19.591Z,24.10
2022-08-10T20:46:28.887Z,24.00
2022-08-10T20:52:26.157Z,23.90
2022-08-10T20:58:37.963Z,23.80
2022-08-10T21:04:48.781Z,23.70
2022-08-10T21:11:13.242Z,23.60
2022-08-10T21:17:19.637Z,23.50
2022-08-10T21:23:16.706Z,23.40
2022-08-10T21:29:39.879Z,23.30
2022-08-10T21:35:38.334Z,23.20
2022-08-10T21:42:03.060Z,23.10
2022-08-10T21:48:30.049Z,23.00
2022-08-10T21:54:47.102Z,23.00
2022-08-10T22:07:33.418Z,22.90
2022-08-10T22:13:45.106Z,22.80
2022-08-10T22:20:16.714Z,22.80
2022-08-10T22:27:00.479Z,22.20
2022-08-10T22:33:38.612Z,22.30
2022-08-10T22:40:14.651Z,22.20
2022-08-10T22:46:34.810Z,22.10
2022-08-10T22:52:33.957Z,21.90
2022-08-10T22:58:50.609Z,22.00
2022-08-10T23:04:52.609Z,21.80
2022-08-10T23:11:00.342Z,21.60
2022-08-10T23:17:17.557Z,21.40
2022-08-10T23:23:23.493Z,21.40
2022-08-10T23:29:21.755Z,21.20
2022-08-10T23:36:30.312Z,21.30
2022-08-10T23:41:42.354Z,21.20
2022-08-10T23:47:45.748Z,21.60
2022-08-10T23:53:44.749Z,21.60
2022-08-10T23:59:40.657Z,21.40
